createdAt,value
2018-06-29T00:00:38.878Z,1021.77
2018-06-29T00:01:47.739Z,1021.79
2018-06-29T00:02:56.600Z,1021.78
2018-06-29T00:04:06.089Z,1021.79
2018-06-29T00:05:14.959Z,1021.82
2018-06-29T00:06:24.149Z,1021.83
2018-06-29T00:07:33.017Z,1021.82
2018-06-29T00:08:42.211Z,1021.8
2018-06-29T00:09:51.427Z,1021.78
2018-06-29T00:11:00.568Z,1021.84
2018-06-29T00:12:09.434Z,1021.77
2018-06-29T00:13:18.575Z,1021.82
2018-06-29T00:14:27.441Z,1021.78
2018-06-29T00:15:36.835Z,1021.72
2018-06-29T00:16:45.975Z,1021.75
2018-06-29T00:17:55.119Z,1021.72
2018-06-29T00:19:03.982Z,1021.74
2018-06-29T00:20:13.121Z,1021.75
2018-06-29T00:21:21.982Z,1021.74
2018-06-29T00:22:30.845Z,1021.73
2018-06-29T00:23:39.708Z,1021.69
2018-06-29T00:24:48.573Z,1021.7
2018-06-29T00:25:57.434Z,1021.69
2018-06-29T00:27:06.348Z,1021.7
2018-06-29T00:28:15.487Z,1021.68
2018-06-29T00:29:24.351Z,1021.67
2018-06-29T00:30:33.771Z,1021.7
2018-06-29T00:31:42.633Z,1021.72
2018-06-29T00:32:51.501Z,1021.69
2018-06-29T00:34:00.357Z,1021.69
2018-06-29T00:35:09.218Z,1021.71
2018-06-29T00:36:21.150Z,1021.72
2018-06-29T00:37:31.147Z,1021.74
2018-06-29T00:38:40.292Z,1021.73
2018-06-29T00:39:49.425Z,1021.74
2018-06-29T00:40:58.288Z,1021.73
2018-06-29T00:42:07.260Z,1021.7
2018-06-29T00:43:16.531Z,1021.66
2018-06-29T00:44:25.675Z,1021.65
2018-06-29T00:45:34.538Z,1021.64
2018-06-29T00:46:43.401Z,1021.67
2018-06-29T00:47:52.545Z,1021.63
2018-06-29T00:49:01.408Z,1021.68
2018-06-29T00:50:10.547Z,1021.66
2018-06-29T00:51:19.416Z,1021.66
2018-06-29T00:52:28.270Z,1021.61
2018-06-29T00:53:37.409Z,1021.63
2018-06-29T00:54:46.273Z,1021.6
2018-06-29T00:55:55.287Z,1021.6
2018-06-29T00:57:04.426Z,1021.6
2018-06-29T00:58:13.560Z,1021.57
2018-06-29T00:59:22.420Z,1021.57
2018-06-29T01:00:31.283Z,1021.6
2018-06-29T01:01:40.195Z,1021.55
2018-06-29T01:02:49.063Z,1021.55
2018-06-29T01:03:57.925Z,1021.5
2018-06-29T01:05:06.788Z,1021.52
2018-06-29T01:06:15.648Z,1021.55
2018-06-29T01:07:24.788Z,1021.59
2018-06-29T01:08:33.653Z,1021.57
2018-06-29T01:09:42.791Z,1021.55
2018-06-29T01:10:51.653Z,1021.56
2018-06-29T01:12:00.516Z,1021.53
2018-06-29T01:13:09.380Z,1021.59
2018-06-29T01:14:18.243Z,1021.57
2018-06-29T01:15:27.107Z,1021.57
2018-06-29T01:16:35.971Z,1021.62
2018-06-29T01:17:45.110Z,1021.6
2018-06-29T01:18:54.027Z,1021.62
2018-06-29T01:20:02.889Z,1021.61
2018-06-29T01:21:11.750Z,1021.58
2018-06-29T01:22:20.892Z,1021.61
2018-06-29T01:23:29.758Z,1021.58
2018-06-29T01:24:39.180Z,1021.56
2018-06-29T01:25:48.043Z,1021.53
2018-06-29T01:26:57.180Z,1021.52
2018-06-29T01:28:06.143Z,1021.5
2018-06-29T01:29:15.003Z,1021.47
2018-06-29T01:30:24.018Z,1021.52
2018-06-29T01:31:32.883Z,1021.47
2018-06-29T01:32:41.751Z,1021.49
2018-06-29T01:33:50.614Z,1021.51
2018-06-29T01:34:59.476Z,1021.52
2018-06-29T01:36:08.340Z,1021.43
2018-06-29T01:37:17.203Z,1021.47
2018-06-29T01:38:26.067Z,1021.45
2018-06-29T01:39:34.928Z,1021.48
2018-06-29T01:40:43.788Z,1021.45
2018-06-29T01:41:52.650Z,1021.45
2018-06-29T01:43:01.513Z,1021.51
2018-06-29T01:44:10.377Z,1021.46
2018-06-29T01:45:19.238Z,1021.48
2018-06-29T01:46:28.098Z,1021.5
2018-06-29T01:47:37.072Z,1021.46
2018-06-29T01:48:45.923Z,1021.44
2018-06-29T01:49:55.058Z,1021.42
2018-06-29T01:51:03.919Z,1021.42
2018-06-29T01:52:12.798Z,1021.43
2018-06-29T01:53:22.004Z,1021.43
2018-06-29T01:54:31.144Z,1021.43
2018-06-29T01:55:40.007Z,1021.4
2018-06-29T01:56:49.144Z,1021.42
2018-06-29T01:57:58.006Z,1021.41
2018-06-29T01:59:07.202Z,1021.4
2018-06-29T02:00:16.340Z,1021.4
2018-06-29T02:01:25.205Z,1021.4
2018-06-29T02:02:34.068Z,1021.39
2018-06-29T02:03:42.928Z,1021.36
2018-06-29T02:04:51.792Z,1021.37
2018-06-29T02:06:00.932Z,1021.38
2018-06-29T02:07:09.793Z,1021.32
2018-06-29T02:08:18.659Z,1021.31
2018-06-29T02:09:27.797Z,1021.28
2018-06-29T02:10:36.759Z,1021.33
2018-06-29T02:11:45.620Z,1021.33
2018-06-29T02:12:54.482Z,1021.31
2018-06-29T02:14:03.340Z,1021.27
2018-06-29T02:15:12.477Z,1021.32
2018-06-29T02:16:21.389Z,1021.26
2018-06-29T02:17:30.251Z,1021.27
2018-06-29T02:18:39.113Z,1021.29
2018-06-29T02:19:48.251Z,1021.31
2018-06-29T02:20:57.115Z,1021.29
2018-06-29T02:22:06.259Z,1021.25
2018-06-29T02:23:15.122Z,1021.28
2018-06-29T02:24:23.981Z,1021.26
2018-06-29T02:25:32.843Z,1021.29
2018-06-29T02:26:41.701Z,1021.28
2018-06-29T02:27:50.613Z,1021.25
2018-06-29T02:28:59.471Z,1021.26
2018-06-29T02:30:08.336Z,1021.21
2018-06-29T02:31:17.208Z,1021.18
2018-06-29T02:32:26.346Z,1021.15
2018-06-29T02:33:35.655Z,1021.11
2018-06-29T02:34:44.521Z,1021.11
2018-06-29T02:35:53.664Z,1021.12
2018-06-29T02:37:02.809Z,1021.13
2018-06-29T02:38:11.958Z,1021.13
2018-06-29T02:39:21.429Z,1021.14
2018-06-29T02:40:30.566Z,1021.18
2018-06-29T02:41:39.431Z,1021.17
2018-06-29T02:42:48.568Z,1021.19
2018-06-29T02:43:57.707Z,1021.17
2018-06-29T02:45:06.581Z,1021.16
2018-06-29T02:46:16.016Z,1021.18
2018-06-29T02:47:24.885Z,1021.18
2018-06-29T02:48:34.587Z,1021.18
2018-06-29T02:49:43.731Z,1021.17
2018-06-29T02:50:52.590Z,1021.14
2018-06-29T02:52:01.454Z,1021.12
2018-06-29T02:53:10.594Z,1021.1
2018-06-29T02:54:19.465Z,1021.14
2018-06-29T02:55:28.326Z,1021.17
2018-06-29T02:56:37.751Z,1021.14
2018-06-29T02:57:46.619Z,1021.11
2018-06-29T02:58:56.036Z,1021.13
2018-06-29T03:00:05.183Z,1021.17
2018-06-29T03:01:14.333Z,1021.16
2018-06-29T03:02:23.248Z,1021.15
2018-06-29T03:03:32.110Z,1021.14
2018-06-29T03:04:40.976Z,1021.09
2018-06-29T03:05:49.843Z,1021.11
2018-06-29T03:06:58.710Z,1021.14
2018-06-29T03:08:07.852Z,1021.19
2018-06-29T03:09:16.714Z,1021.16
2018-06-29T03:10:25.853Z,1021.17
2018-06-29T03:11:34.717Z,1021.18
2018-06-29T03:12:44.126Z,1021.15
2018-06-29T03:13:53.649Z,1021.14
2018-06-29T03:15:02.793Z,1021.11
2018-06-29T03:16:12.209Z,1021.1
2018-06-29T03:17:21.125Z,1021.08
2018-06-29T03:18:29.931Z,1021.14
2018-06-29T03:19:39.120Z,1021.14
2018-06-29T03:20:48.528Z,1021.15
2018-06-29T03:21:57.664Z,1021.13
2018-06-29T03:23:06.576Z,1021.13
2018-06-29T03:24:15.722Z,1021.18
2018-06-29T03:25:24.935Z,1021.17
2018-06-29T03:26:33.795Z,1021.2
2018-06-29T03:27:42.658Z,1021.22
2018-06-29T03:28:51.539Z,1021.26
2018-06-29T03:30:00.406Z,1021.3
2018-06-29T03:31:09.700Z,1021.28
2018-06-29T03:32:19.409Z,1021.31
2018-06-29T03:33:28.546Z,1021.32
2018-06-29T03:34:37.407Z,1021.32
2018-06-29T03:35:46.269Z,1021.3
2018-06-29T03:36:55.482Z,1021.37
2018-06-29T03:38:04.342Z,1021.28
2018-06-29T03:39:13.203Z,1021.29
2018-06-29T03:40:22.187Z,1021.27
2018-06-29T03:41:31.795Z,1021.26
2018-06-29T03:42:41.006Z,1021.24
2018-06-29T03:43:50.141Z,1021.25
2018-06-29T03:44:59.278Z,1021.24
2018-06-29T03:46:08.139Z,1021.21
2018-06-29T03:47:17.005Z,1021.23
2018-06-29T03:48:26.018Z,1021.23
2018-06-29T03:49:34.977Z,1021.25
2018-06-29T03:50:43.889Z,1021.23
2018-06-29T03:51:52.748Z,1021.22
2018-06-29T03:53:01.611Z,1021.23
2018-06-29T03:54:10.795Z,1021.19
2018-06-29T03:55:19.658Z,1021.21
2018-06-29T03:56:29.083Z,1021.21
2018-06-29T03:57:37.944Z,1021.21
2018-06-29T03:58:47.635Z,1021.23
2018-06-29T03:59:56.648Z,1021.19
2018-06-29T04:01:05.511Z,1021.21
2018-06-29T04:02:14.372Z,1021.16
2018-06-29T04:03:23.310Z,1021.21
2018-06-29T04:04:32.095Z,1021.13
2018-06-29T04:05:41.108Z,1021.12
2018-06-29T04:06:49.971Z,1021.15
2018-06-29T04:07:58.829Z,1021.15
2018-06-29T04:09:07.691Z,1021.12
2018-06-29T04:10:17.109Z,1021.16
2018-06-29T04:11:26.349Z,1021.1
2018-06-29T04:12:35.210Z,1021.15
2018-06-29T04:13:44.075Z,1021.13
2018-06-29T04:14:52.935Z,1021.1
2018-06-29T04:16:01.800Z,1021.09
2018-06-29T04:17:10.705Z,1021.13
2018-06-29T04:18:20.116Z,1021.16
2018-06-29T04:19:28.978Z,1021.09
2018-06-29T04:20:38.119Z,1021.09
2018-06-29T04:21:46.981Z,1021.06
2018-06-29T04:22:56.042Z,1021.04
2018-06-29T04:24:04.904Z,1021.06
2018-06-29T04:25:13.765Z,1021.03
2018-06-29T04:26:22.956Z,1021.01
2018-06-29T04:27:31.767Z,1021.05
2018-06-29T04:28:40.982Z,1021.02
2018-06-29T04:29:50.121Z,1021.04
2018-06-29T04:30:58.985Z,1021
2018-06-29T04:32:08.121Z,1021.01
2018-06-29T04:33:17.264Z,1021.01
2018-06-29T04:34:26.279Z,1021.01
2018-06-29T04:35:35.140Z,1021
2018-06-29T04:36:44.287Z,1021.06
2018-06-29T04:37:53.149Z,1021.05
2018-06-29T04:39:02.289Z,1021.03
2018-06-29T04:40:11.300Z,1021.02
2018-06-29T04:41:20.163Z,1021.05
2018-06-29T04:42:29.021Z,1021.04
2018-06-29T04:43:38.168Z,1021.02
2018-06-29T04:44:47.028Z,1021.03
2018-06-29T04:45:56.243Z,1021.03
2018-06-29T04:47:05.107Z,1021.01
2018-06-29T04:48:13.977Z,1021
2018-06-29T04:49:22.852Z,1021.02
2018-06-29T04:50:32.368Z,1021.03
2018-06-29T04:51:41.278Z,1021.03
2018-06-29T04:52:50.141Z,1021
2018-06-29T04:53:59.006Z,1021
2018-06-29T04:55:07.867Z,1021
2018-06-29T04:56:17.006Z,1021
2018-06-29T04:57:26.220Z,1021.04
2018-06-29T04:58:35.362Z,1021.01
2018-06-29T04:59:44.223Z,1021.01
2018-06-29T05:00:53.143Z,1021
2018-06-29T05:02:02.275Z,1021
2018-06-29T05:03:11.239Z,1021.03
2018-06-29T05:04:20.100Z,1021.04
2018-06-29T05:05:28.963Z,1021.06
2018-06-29T05:06:37.821Z,1021.02
2018-06-29T05:07:46.684Z,1021.01
2018-06-29T05:08:55.699Z,1021.03
2018-06-29T05:10:04.852Z,1021.1
2018-06-29T05:11:13.987Z,1021.05
2018-06-29T05:12:23.422Z,1021.04
2018-06-29T05:13:32.284Z,1021.01
2018-06-29T05:14:41.247Z,1021.05
2018-06-29T05:15:50.111Z,1021.01
2018-06-29T05:16:58.971Z,1021.03
2018-06-29T05:18:07.833Z,1021.05
2018-06-29T05:19:16.702Z,1020.99
2018-06-29T05:20:25.845Z,1020.99
2018-06-29T05:21:34.708Z,1020.97
2018-06-29T05:22:43.572Z,1020.96
2018-06-29T05:23:52.718Z,1020.93
2018-06-29T05:25:01.581Z,1020.92
2018-06-29T05:26:10.447Z,1020.91
2018-06-29T05:27:19.314Z,1020.93
2018-06-29T05:28:28.226Z,1020.9
2018-06-29T05:29:37.635Z,1020.91
2018-06-29T05:30:46.501Z,1020.99
2018-06-29T05:31:55.514Z,1020.96
2018-06-29T05:33:04.377Z,1020.93
2018-06-29T05:34:13.241Z,1020.93
2018-06-29T05:35:22.104Z,1020.92
2018-06-29T05:36:30.967Z,1021
2018-06-29T05:37:39.833Z,1020.99
2018-06-29T05:38:48.986Z,1021
2018-06-29T05:39:57.835Z,1020.98
2018-06-29T05:41:06.717Z,1021.01
2018-06-29T05:42:15.580Z,1021.02
2018-06-29T05:43:24.544Z,1020.99
2018-06-29T05:44:33.407Z,1020.97
2018-06-29T05:45:42.271Z,1020.95
2018-06-29T05:46:51.157Z,1020.97
2018-06-29T05:48:00.314Z,1020.91
2018-06-29T05:49:09.388Z,1020.93
2018-06-29T05:50:18.588Z,1020.97
2018-06-29T05:51:27.453Z,1020.95
2018-06-29T05:52:36.312Z,1020.94
2018-06-29T05:53:45.176Z,1020.91
2018-06-29T05:54:54.367Z,1020.9
2018-06-29T05:56:03.228Z,1020.91
2018-06-29T05:57:12.091Z,1020.91
2018-06-29T05:58:20.957Z,1020.93
2018-06-29T05:59:29.825Z,1020.88
2018-06-29T06:00:39.009Z,1020.94
2018-06-29T06:01:47.875Z,1020.91
2018-06-29T06:02:56.737Z,1020.92
2018-06-29T06:04:05.596Z,1020.94
2018-06-29T06:05:14.460Z,1020.91
2018-06-29T06:06:23.336Z,1020.92
2018-06-29T06:07:32.474Z,1020.91
2018-06-29T06:08:41.336Z,1020.92
2018-06-29T06:09:50.199Z,1020.94
2018-06-29T06:10:59.062Z,1020.94
2018-06-29T06:12:08.274Z,1020.93
2018-06-29T06:13:17.416Z,1020.89
2018-06-29T06:14:26.936Z,1020.86
2018-06-29T06:15:35.800Z,1020.86
2018-06-29T06:16:44.663Z,1020.86
2018-06-29T06:17:54.082Z,1020.8
2018-06-29T06:19:03.248Z,1020.81
2018-06-29T06:20:12.401Z,1020.78
2018-06-29T06:21:21.294Z,1020.8
2018-06-29T06:22:30.698Z,1020.78
2018-06-29T06:23:40.442Z,1020.8
2018-06-29T06:24:50.055Z,1020.81
2018-06-29T06:25:59.853Z,1020.82
2018-06-29T06:27:08.716Z,1020.79
2018-06-29T06:28:17.580Z,1020.86
2018-06-29T06:29:26.725Z,1020.82
2018-06-29T06:30:35.691Z,1020.86
2018-06-29T06:31:44.833Z,1020.86
2018-06-29T06:32:53.695Z,1020.82
2018-06-29T06:34:02.707Z,1020.86
2018-06-29T06:35:11.847Z,1020.84
2018-06-29T06:36:20.712Z,1020.86
2018-06-29T06:37:29.579Z,1020.83
2018-06-29T06:38:38.714Z,1020.84
2018-06-29T06:39:47.889Z,1020.84
2018-06-29T06:40:56.752Z,1020.86
2018-06-29T06:42:05.619Z,1020.85
2018-06-29T06:43:14.733Z,1020.83
2018-06-29T06:44:23.597Z,1020.8
2018-06-29T06:45:32.461Z,1020.78
2018-06-29T06:46:41.340Z,1020.82
2018-06-29T06:47:50.481Z,1020.82
2018-06-29T06:48:59.446Z,1020.85
2018-06-29T06:50:08.310Z,1020.9
2018-06-29T06:51:17.175Z,1020.87
2018-06-29T06:52:26.040Z,1020.82
2018-06-29T06:53:34.954Z,1020.84
2018-06-29T06:54:44.221Z,1020.83
2018-06-29T06:55:53.359Z,1020.85
2018-06-29T06:57:02.498Z,1020.86
2018-06-29T06:58:11.364Z,1020.85
2018-06-29T06:59:20.268Z,1020.86
2018-06-29T07:00:29.815Z,1020.81
2018-06-29T07:01:38.681Z,1020.83
2018-06-29T07:02:47.562Z,1020.82
2018-06-29T07:03:56.427Z,1020.82
2018-06-29T07:05:05.567Z,1020.84
2018-06-29T07:06:14.535Z,1020.83
2018-06-29T07:07:23.400Z,1020.76
2018-06-29T07:08:32.264Z,1020.76
2018-06-29T07:09:41.689Z,1020.78
2018-06-29T07:10:50.551Z,1020.7
2018-06-29T07:11:59.516Z,1020.68
2018-06-29T07:13:08.660Z,1020.64
2018-06-29T07:14:17.528Z,1020.6
2018-06-29T07:15:26.396Z,1020.59
2018-06-29T07:16:35.280Z,1020.56
2018-06-29T07:17:44.134Z,1020.54
2018-06-29T07:18:53.566Z,1020.53
2018-06-29T07:20:02.709Z,1020.54
2018-06-29T07:21:11.575Z,1020.51
2018-06-29T07:22:20.722Z,1020.49
2018-06-29T07:23:30.123Z,1020.51
2018-06-29T07:24:38.988Z,1020.5
2018-06-29T07:25:47.853Z,1020.5
2018-06-29T07:26:56.716Z,1020.47
2018-06-29T07:28:05.577Z,1020.47
2018-06-29T07:29:14.592Z,1020.48
2018-06-29T07:30:23.455Z,1020.47
2018-06-29T07:31:32.321Z,1020.49
2018-06-29T07:32:41.469Z,1020.51
2018-06-29T07:33:50.332Z,1020.47
2018-06-29T07:34:59.548Z,1020.45
2018-06-29T07:36:08.415Z,1020.44
2018-06-29T07:37:17.566Z,1020.4
2018-06-29T07:38:26.431Z,1020.4
2018-06-29T07:39:35.639Z,1020.38
2018-06-29T07:40:44.554Z,1020.37
2018-06-29T07:41:53.418Z,1020.34
2018-06-29T07:43:02.280Z,1020.32
2018-06-29T07:44:11.427Z,1020.31
2018-06-29T07:45:20.569Z,1020.31
2018-06-29T07:46:29.434Z,1020.27
2018-06-29T07:47:38.303Z,1020.25
2018-06-29T07:48:47.448Z,1020.19
2018-06-29T07:49:56.310Z,1020.14
2018-06-29T07:51:05.175Z,1020.22
2018-06-29T07:52:14.090Z,1020.18
2018-06-29T07:53:22.954Z,1020.2
2018-06-29T07:54:31.826Z,1020.22
2018-06-29T07:55:41.249Z,1020.24
2018-06-29T07:56:50.121Z,1020.21
2018-06-29T07:57:59.429Z,1020.16
2018-06-29T07:59:08.966Z,1020.2
2018-06-29T08:00:17.835Z,1020.15
2018-06-29T08:01:26.751Z,1020.1
2018-06-29T08:02:36.235Z,1020.14
2018-06-29T08:03:45.186Z,1020.06
2018-06-29T08:04:54.780Z,1020.08
2018-06-29T08:06:03.642Z,1020.07
2018-06-29T08:07:12.797Z,1020.07
2018-06-29T08:08:21.681Z,1020.1
2018-06-29T08:09:30.630Z,1020.09
2018-06-29T08:10:39.797Z,1020.1
2018-06-29T08:11:48.650Z,1020.1
2018-06-29T08:12:57.513Z,1020.1
2018-06-29T08:14:06.389Z,1020.1
2018-06-29T08:15:15.295Z,1020.13
2018-06-29T08:16:24.161Z,1020.14
2018-06-29T08:17:33.025Z,1020.16
2018-06-29T08:18:41.894Z,1020.19
2018-06-29T08:19:50.760Z,1020.11
2018-06-29T08:20:59.951Z,1020.15
2018-06-29T08:22:08.816Z,1020.11
2018-06-29T08:23:17.682Z,1020.15
2018-06-29T08:24:26.565Z,1020.18
2018-06-29T08:25:35.417Z,1020.17
2018-06-29T08:26:44.621Z,1020.19
2018-06-29T08:27:53.489Z,1020.12
2018-06-29T08:29:02.634Z,1020.13
2018-06-29T08:30:11.502Z,1020.12
2018-06-29T08:31:20.376Z,1020.13
2018-06-29T08:32:29.624Z,1020.14
2018-06-29T08:33:38.742Z,1020.11
2018-06-29T08:34:47.607Z,1020.09
2018-06-29T08:35:56.480Z,1020.08
2018-06-29T08:37:05.345Z,1020.1
2018-06-29T08:38:14.535Z,1020.08
2018-06-29T08:39:23.404Z,1020.07
2018-06-29T08:40:32.267Z,1020.05
2018-06-29T08:41:41.135Z,1020.05
2018-06-29T08:42:49.999Z,1020.09
2018-06-29T08:43:59.013Z,1020.1
2018-06-29T08:45:08.468Z,1020.12
2018-06-29T08:46:17.333Z,1020.09
2018-06-29T08:47:26.212Z,1020.1
2018-06-29T08:48:35.081Z,1020.09
2018-06-29T08:49:44.219Z,1020.1
2018-06-29T08:50:53.310Z,1020.09
2018-06-29T08:52:02.176Z,1020.08
2018-06-29T08:53:11.045Z,1020.07
2018-06-29T08:54:19.920Z,1020.12
2018-06-29T08:55:29.121Z,1020.1
2018-06-29T08:56:37.988Z,1020.13
2018-06-29T08:57:46.853Z,1020.07
2018-06-29T08:58:55.873Z,1020.14
2018-06-29T09:00:04.588Z,1020.11
2018-06-29T09:01:14.006Z,1020.08
2018-06-29T09:02:22.884Z,1020.1
2018-06-29T09:03:31.743Z,1020.11
2018-06-29T09:04:40.890Z,1020.06
2018-06-29T09:05:50.031Z,1020.12
2018-06-29T09:06:59.099Z,1020.11
2018-06-29T09:08:07.965Z,1020.09
2018-06-29T09:09:17.119Z,1020.09
2018-06-29T09:10:25.986Z,1020.12
2018-06-29T09:11:34.857Z,1020.09
2018-06-29T09:12:44.098Z,1020.08
2018-06-29T09:13:53.240Z,1020.06
2018-06-29T09:15:02.109Z,1020.05
2018-06-29T09:16:11.258Z,1019.98
2018-06-29T09:17:20.400Z,1019.97
2018-06-29T09:18:29.366Z,1019.95
2018-06-29T09:19:38.236Z,1019.93
2018-06-29T09:20:47.108Z,1019.94
2018-06-29T09:21:55.976Z,1019.93
2018-06-29T09:23:04.841Z,1020.02
2018-06-29T09:24:13.984Z,1019.99
2018-06-29T09:25:22.830Z,1019.93
2018-06-29T09:26:31.966Z,1019.91
2018-06-29T09:27:41.116Z,1019.92
2018-06-29T09:28:49.981Z,1019.9
2018-06-29T09:29:58.917Z,1019.88
2018-06-29T09:31:08.227Z,1019.8
2018-06-29T09:32:17.103Z,1019.77
2018-06-29T09:33:26.526Z,1019.74
2018-06-29T09:34:35.392Z,1019.69
2018-06-29T09:35:44.411Z,1019.67
2018-06-29T09:36:53.275Z,1019.65
2018-06-29T09:38:02.146Z,1019.64
2018-06-29T09:39:11.011Z,1019.58
2018-06-29T09:40:19.878Z,1019.59
2018-06-29T09:41:28.793Z,1019.55
2018-06-29T09:42:37.971Z,1019.57
2018-06-29T09:43:47.092Z,1019.58
2018-06-29T09:44:55.954Z,1019.62
2018-06-29T09:46:04.924Z,1019.56
2018-06-29T09:47:14.141Z,1019.59
2018-06-29T09:48:23.287Z,1019.56
2018-06-29T09:49:32.151Z,1019.57
2018-06-29T09:50:41.017Z,1019.52
2018-06-29T09:51:49.888Z,1019.51
2018-06-29T09:52:59.183Z,1019.53
2018-06-29T09:54:08.144Z,1019.52
2018-06-29T09:55:16.916Z,1019.57
2018-06-29T09:56:25.784Z,1019.58
2018-06-29T09:57:34.652Z,1019.56
2018-06-29T09:58:43.569Z,1019.51
2018-06-29T09:59:52.436Z,1019.56
2018-06-29T10:01:01.385Z,1019.57
2018-06-29T10:02:10.991Z,1019.49
2018-06-29T10:03:19.864Z,1019.54
2018-06-29T10:04:28.833Z,1019.48
2018-06-29T10:05:37.700Z,1019.55
2018-06-29T10:06:46.851Z,1019.43
2018-06-29T10:07:55.996Z,1019.45
2018-06-29T10:09:05.145Z,1019.42
2018-06-29T10:10:14.363Z,1019.44
2018-06-29T10:11:23.230Z,1019.43
2018-06-29T10:12:32.094Z,1019.42
2018-06-29T10:13:41.250Z,1019.46
2018-06-29T10:14:50.118Z,1019.39
2018-06-29T10:15:59.134Z,1019.44
2018-06-29T10:17:08.001Z,1019.52
2018-06-29T10:18:16.869Z,1019.55
2018-06-29T10:19:26.017Z,1019.47
2018-06-29T10:20:35.167Z,1019.51
2018-06-29T10:21:44.085Z,1019.49
2018-06-29T10:22:52.959Z,1019.48
2018-06-29T10:24:01.829Z,1019.53
2018-06-29T10:25:11.344Z,1019.5
2018-06-29T10:26:20.173Z,1019.46
2018-06-29T10:27:29.188Z,1019.48
2018-06-29T10:28:38.055Z,1019.54
2018-06-29T10:29:47.195Z,1019.54
2018-06-29T10:30:56.456Z,1019.54
2018-06-29T10:32:05.201Z,1019.47
2018-06-29T10:33:14.222Z,1019.48
2018-06-29T10:34:23.090Z,1019.45
2018-06-29T10:35:31.953Z,1019.43
2018-06-29T10:36:40.826Z,1019.46
2018-06-29T10:37:49.693Z,1019.47
2018-06-29T10:38:58.984Z,1019.42
2018-06-29T10:40:07.853Z,1019.47
2018-06-29T10:41:16.717Z,1019.49
2018-06-29T10:42:25.588Z,1019.44
2018-06-29T10:43:34.488Z,1019.42
2018-06-29T10:44:43.548Z,1019.4
2018-06-29T10:45:53.582Z,1019.42
2018-06-29T10:47:02.453Z,1019.47
2018-06-29T10:48:11.598Z,1019.46
2018-06-29T10:49:20.740Z,1019.39
2018-06-29T10:50:29.658Z,1019.37
2018-06-29T10:51:38.524Z,1019.4
2018-06-29T10:52:47.682Z,1019.38
2018-06-29T10:53:56.936Z,1019.31
2018-06-29T10:55:06.079Z,1019.42
2018-06-29T10:56:15.051Z,1019.41
2018-06-29T10:57:23.921Z,1019.37
2018-06-29T10:58:32.789Z,1019.47
2018-06-29T10:59:42.252Z,1019.48
2018-06-29T11:00:51.123Z,1019.48
2018-06-29T11:02:00.043Z,1019.43
2018-06-29T11:03:08.906Z,1019.41
2018-06-29T11:04:18.047Z,1019.37
2018-06-29T11:05:26.947Z,1019.43
2018-06-29T11:06:35.780Z,1019.36
2018-06-29T11:07:44.897Z,1019.4
2018-06-29T11:08:53.764Z,1019.31
2018-06-29T11:10:02.682Z,1019.37
2018-06-29T11:11:11.554Z,1019.3
2018-06-29T11:12:20.422Z,1019.3
2018-06-29T11:13:29.713Z,1019.28
2018-06-29T11:14:38.862Z,1019.28
2018-06-29T11:15:47.728Z,1019.28
2018-06-29T11:16:56.594Z,1019.26
2018-06-29T11:18:05.461Z,1019.3
2018-06-29T11:19:14.702Z,1019.27
2018-06-29T11:20:23.568Z,1019.26
2018-06-29T11:21:32.437Z,1019.25
2018-06-29T11:22:41.449Z,1019.17
2018-06-29T11:23:50.169Z,1019.22
2018-06-29T11:24:59.738Z,1019.26
2018-06-29T11:26:08.601Z,1019.3
2018-06-29T11:27:17.754Z,1019.26
2018-06-29T11:28:26.623Z,1019.27
2018-06-29T11:29:35.497Z,1019.3
2018-06-29T11:30:44.697Z,1019.33
2018-06-29T11:31:53.842Z,1019.28
2018-06-29T11:33:02.718Z,1019.31
2018-06-29T11:34:11.584Z,1019.3
2018-06-29T11:35:20.456Z,1019.28
2018-06-29T11:36:30.025Z,1019.29
2018-06-29T11:37:38.893Z,1019.21
2018-06-29T11:38:47.758Z,1019.23
2018-06-29T11:39:56.624Z,1019.2
2018-06-29T11:41:05.491Z,1019.19
2018-06-29T11:42:14.690Z,1019.14
2018-06-29T11:43:24.110Z,1019.21
2018-06-29T11:44:33.254Z,1019.13
2018-06-29T11:45:42.118Z,1019.15
2018-06-29T11:46:51.266Z,1019.19
2018-06-29T11:48:00.757Z,1019.18
2018-06-29T11:49:09.623Z,1019.2
2018-06-29T11:50:18.774Z,1019.16
2018-06-29T11:51:27.674Z,1019.12
2018-06-29T11:52:36.510Z,1019.1
2018-06-29T11:53:45.580Z,1019.13
2018-06-29T11:54:54.454Z,1019.19
2018-06-29T11:56:03.322Z,1019.18
2018-06-29T11:57:12.189Z,1019.19
2018-06-29T11:58:21.065Z,1019.11
2018-06-29T11:59:30.259Z,1019.17
2018-06-29T12:00:39.211Z,1019.27
2018-06-29T12:01:47.998Z,1019.18
2018-06-29T12:02:56.866Z,1019.16
2018-06-29T12:04:05.733Z,1019.24
2018-06-29T12:05:14.755Z,1019.17
2018-06-29T12:06:23.903Z,1019.18
2018-06-29T12:07:32.775Z,1019.14
2018-06-29T12:08:41.647Z,1019.09
2018-06-29T12:09:50.518Z,1019.14
2018-06-29T12:10:59.538Z,1019.17
2018-06-29T12:12:08.412Z,1019.17
2018-06-29T12:13:17.286Z,1019.2
2018-06-29T12:14:26.444Z,1019.16
2018-06-29T12:15:35.870Z,1019.15
2018-06-29T12:16:45.096Z,1019.06
2018-06-29T12:17:54.250Z,1019.08
2018-06-29T12:19:03.121Z,1019.06
2018-06-29T12:20:12.098Z,1019.09
2018-06-29T12:21:21.248Z,1019.08
2018-06-29T12:22:30.271Z,1019.06
2018-06-29T12:23:39.146Z,1019.09
2018-06-29T12:24:48.064Z,1019.08
2018-06-29T12:25:57.169Z,1019.04
2018-06-29T12:27:06.044Z,1019.07
2018-06-29T12:28:15.019Z,1019.04
2018-06-29T12:29:24.739Z,1019.02
2018-06-29T12:30:33.888Z,1019
2018-06-29T12:31:42.768Z,1019.01
2018-06-29T12:32:52.200Z,1018.94
2018-06-29T12:34:01.173Z,1018.96
2018-06-29T12:35:10.051Z,1018.91
2018-06-29T12:36:18.925Z,1018.89
2018-06-29T12:37:28.081Z,1018.91
2018-06-29T12:38:36.956Z,1018.91
2018-06-29T12:39:45.937Z,1018.96
2018-06-29T12:40:54.820Z,1018.98
2018-06-29T12:42:03.973Z,1019.05
2018-06-29T12:43:12.851Z,1018.98
2018-06-29T12:44:21.730Z,1019.05
2018-06-29T12:45:30.988Z,1019.02
2018-06-29T12:46:40.140Z,1018.97
2018-06-29T12:47:49.015Z,1018.92
2018-06-29T12:48:57.892Z,1018.95
2018-06-29T12:50:06.773Z,1018.98
2018-06-29T12:51:15.701Z,1018.98
2018-06-29T12:52:24.577Z,1018.9
2018-06-29T12:53:33.454Z,1018.91
2018-06-29T12:54:42.330Z,1018.9
2018-06-29T12:55:51.248Z,1018.89
2018-06-29T12:57:00.439Z,1018.82
2018-06-29T12:58:09.595Z,1018.9
2018-06-29T12:59:18.476Z,1018.93
2018-06-29T13:00:27.631Z,1018.91
2018-06-29T13:01:36.510Z,1018.88
2018-06-29T13:02:45.719Z,1018.83
2018-06-29T13:03:54.598Z,1018.79
2018-06-29T13:05:03.473Z,1018.8
2018-06-29T13:06:12.351Z,1018.78
2018-06-29T13:07:21.232Z,1018.79
2018-06-29T13:08:30.115Z,1018.76
2018-06-29T13:09:38.994Z,1018.77
2018-06-29T13:10:47.871Z,1018.7
2018-06-29T13:11:56.749Z,1018.7
2018-06-29T13:13:05.628Z,1018.75
2018-06-29T13:14:14.913Z,1018.72
2018-06-29T13:15:24.502Z,1018.74
2018-06-29T13:16:33.384Z,1018.75
2018-06-29T13:17:42.541Z,1018.73
2018-06-29T13:18:51.696Z,1018.76
2018-06-29T13:20:00.937Z,1018.81
2018-06-29T13:21:10.096Z,1018.69
2018-06-29T13:22:18.976Z,1018.69
2018-06-29T13:23:27.856Z,1018.69
2018-06-29T13:24:36.738Z,1018.62
2018-06-29T13:25:45.716Z,1018.61
2018-06-29T13:26:54.875Z,1018.71
2018-06-29T13:28:04.029Z,1018.7
2018-06-29T13:29:12.907Z,1018.69
2018-06-29T13:30:21.787Z,1018.72
2018-06-29T13:31:30.917Z,1018.7
2018-06-29T13:32:39.796Z,1018.74
2018-06-29T13:33:48.712Z,1018.71
2018-06-29T13:34:57.552Z,1018.71
2018-06-29T13:36:06.492Z,1018.71
2018-06-29T13:37:16.154Z,1018.68
2018-06-29T13:38:25.036Z,1018.63
2018-06-29T13:39:33.916Z,1018.68
2018-06-29T13:40:42.795Z,1018.68
2018-06-29T13:41:51.954Z,1018.72
2018-06-29T13:43:00.835Z,1018.7
2018-06-29T13:44:10.074Z,1018.73
2018-06-29T13:45:18.886Z,1018.73
2018-06-29T13:46:27.769Z,1018.71
2018-06-29T13:47:36.928Z,1018.74
2018-06-29T13:48:45.857Z,1018.71
2018-06-29T13:49:55.023Z,1018.71
2018-06-29T13:51:04.455Z,1018.71
2018-06-29T13:52:13.342Z,1018.73
2018-06-29T13:53:22.221Z,1018.68
2018-06-29T13:54:31.377Z,1018.67
2018-06-29T13:55:40.536Z,1018.61
2018-06-29T13:56:49.417Z,1018.61
2018-06-29T13:57:58.297Z,1018.57
2018-06-29T13:59:07.174Z,1018.62